sensor_id;sensor_type;location;lat;lon;timestamp;pressure;altitude;pressure_sealevel;temperature;humidity
13209;BME280;6669;42.678;23.332;2023-08-20T00:00:20;94793.75;;;21.77;100.00
13209;BME280;6669;42.678;23.332;2023-08-20T00:02:51;94795.91;;;21.80;100.00
13209;BME280;6669;42.678;23.332;2023-08-20T00:05:24;94785.09;;;21.81;100.00
13209;BME280;6669;42.678;23.332;2023-08-20T00:07:52;94790.94;;;21.83;100.00
13209;BME280;6669;42.678;23.332;2023-08-20T00:10:20;94798.41;;;21.86;100.00
13209;BME280;6669;42.678;23.332;2023-08-20T00:12:48;94792.81;;;21.83;100.00
13209;BME280;6669;42.678;23.332;2023-08-20T00:15:17;94791.91;;;21.77;100.00
13209;BME280;6669;42.678;23.332;2023-08-20T00:17:46;94786.59;;;21.77;100.00
13209;BME280;6669;42.678;23.332;2023-08-20T00:20:15;94790.53;;;21.75;100.00
13209;BME280;6669;42.678;23.332;2023-08-20T00:22:44;94790.28;;;21.76;100.00
13209;BME280;6669;42.678;23.332;2023-08-20T00:25:14;94791.34;;;21.75;100.00
13209;BME280;6669;42.678;23.332;2023-08-20T00:27:43;94792.84;;;21.71;100.00
13209;BME280;6669;42.678;23.332;2023-08-20T00:30:12;94794.38;;;21.67;100.00
13209;BME280;6669;42.678;23.332;2023-08-20T00:32:42;94796.44;;;21.65;100.00
13209;BME280;6669;42.678;23.332;2023-08-20T00:35:10;94797.72;;;21.62;100.00
13209;BME280;6669;42.678;23.332;2023-08-20T00:37:38;94792.91;;;21.59;100.00
13209;BME280;6669;42.678;23.332;2023-08-20T00:40:07;94796.91;;;21.62;100.00
13209;BME280;6669;42.678;23.332;2023-08-20T00:42:36;94786.09;;;21.63;100.00
13209;BME280;6669;42.678;23.332;2023-08-20T00:45:05;94786.34;;;21.62;100.00
13209;BME280;6669;42.678;23.332;2023-08-20T00:47:34;94787.84;;;21.58;100.00
13209;BME280;6669;42.678;23.332;2023-08-20T00:50:05;94781.19;;;21.55;100.00
13209;BME280;6669;42.678;23.332;2023-08-20T00:52:34;94792.13;;;21.59;100.00
13209;BME280;6669;42.678;23.332;2023-08-20T00:55:07;94796.47;;;21.53;100.00
13209;BME280;6669;42.678;23.332;2023-08-20T00:57:36;94788.44;;;21.48;100.00
13209;BME280;6669;42.678;23.332;2023-08-20T01:00:05;94784.28;;;21.52;100.00
13209;BME280;6669;42.678;23.332;2023-08-20T01:02:36;94777.94;;;21.53;100.00
13209;BME280;6669;42.678;23.332;2023-08-20T01:05:07;94788.91;;;21.57;100.00
13209;BME280;6669;42.678;23.332;2023-08-20T01:07:42;94785.88;;;21.53;100.00
13209;BME280;6669;42.678;23.332;2023-08-20T01:10:16;94790.84;;;21.49;100.00
13209;BME280;6669;42.678;23.332;2023-08-20T01:12:46;94786.38;;;21.50;100.00
13209;BME280;6669;42.678;23.332;2023-08-20T01:15:14;94790.75;;;21.44;100.00
13209;BME280;6669;42.678;23.332;2023-08-20T01:17:43;94787.22;;;21.38;100.00
13209;BME280;6669;42.678;23.332;2023-08-20T01:20:14;94788.81;;;21.39;100.00
13209;BME280;6669;42.678;23.332;2023-08-20T01:23:03;94786.88;;;21.35;100.00
13209;BME280;6669;42.678;23.332;2023-08-20T01:25:49;94787.84;;;21.46;100.00
13209;BME280;6669;42.678;23.332;2023-08-20T01:28:24;94792.34;;;21.45;100.00
13209;BME280;6669;42.678;23.332;2023-08-20T01:30:54;94791.22;;;21.41;100.00
13209;BME280;6669;42.678;23.332;2023-08-20T01:33:24;94791.09;;;21.48;100.00
13209;BME280;6669;42.678;23.332;2023-08-20T01:35:52;94779.13;;;21.45;100.00
13209;BME280;6669;42.678;23.332;2023-08-20T01:38:21;94785.59;;;21.37;100.00
13209;BME280;6669;42.678;23.332;2023-08-20T01:40:49;94773.50;;;21.42;100.00
13209;BME280;6669;42.678;23.332;2023-08-20T01:43:17;94776.50;;;21.45;100.00
13209;BME280;6669;42.678;23.332;2023-08-20T01:45:46;94767.97;;;21.43;100.00
13209;BME280;6669;42.678;23.332;2023-08-20T01:48:14;94769.34;;;21.46;100.00
13209;BME280;6669;42.678;23.332;2023-08-20T01:50:42;94768.88;;;21.49;100.00
13209;BME280;6669;42.678;23.332;2023-08-20T01:53:11;94767.84;;;21.50;100.00
13209;BME280;6669;42.678;23.332;2023-08-20T01:55:39;94767.53;;;21.46;100.00
13209;BME280;6669;42.678;23.332;2023-08-20T01:58:07;94755.34;;;21.45;100.00
13209;BME280;6669;42.678;23.332;2023-08-20T02:00:34;94754.63;;;21.50;100.00
13209;BME280;6669;42.678;23.332;2023-08-20T02:03:04;94752.78;;;21.50;100.00
13209;BME280;6669;42.678;23.332;2023-08-20T02:05:32;94755.75;;;21.54;100.00
13209;BME280;6669;42.678;23.332;2023-08-20T02:08:00;94745.63;;;21.51;100.00
13209;BME280;6669;42.678;23.332;2023-08-20T02:10:28;94756.56;;;21.54;100.00
13209;BME280;6669;42.678;23.332;2023-08-20T02:12:56;94747.50;;;21.50;100.00
13209;BME280;6669;42.678;23.332;2023-08-20T02:15:24;94746.47;;;21.51;100.00
13209;BME280;6669;42.678;23.332;2023-08-20T02:17:52;94736.25;;;21.43;100.00
13209;BME280;6669;42.678;23.332;2023-08-20T02:20:22;94741.00;;;21.41;100.00
13209;BME280;6669;42.678;23.332;2023-08-20T02:22:51;94736.72;;;21.40;100.00
13209;BME280;6669;42.678;23.332;2023-08-20T02:25:19;94734.56;;;21.37;100.00
13209;BME280;6669;42.678;23.332;2023-08-20T02:27:47;94738.59;;;21.39;100.00
13209;BME280;6669;42.678;23.332;2023-08-20T02:30:15;94735.13;;;21.39;100.00
13209;BME280;6669;42.678;23.332;2023-08-20T02:32:43;94736.88;;;21.33;100.00
13209;BME280;6669;42.678;23.332;2023-08-20T02:35:11;94731.94;;;21.37;100.00
13209;BME280;6669;42.678;23.332;2023-08-20T02:37:43;94734.44;;;21.32;100.00
13209;BME280;6669;42.678;23.332;2023-08-20T02:40:11;94744.34;;;21.36;100.00
13209;BME280;6669;42.678;23.332;2023-08-20T02:42:41;94743.78;;;21.34;100.00
13209;BME280;6669;42.678;23.332;2023-08-20T02:45:09;94743.78;;;21.34;100.00
13209;BME280;6669;42.678;23.332;2023-08-20T02:47:37;94746.63;;;21.33;100.00
13209;BME280;6669;42.678;23.332;2023-08-20T02:50:05;94752.97;;;21.32;100.00
13209;BME280;6669;42.678;23.332;2023-08-20T02:52:33;94749.28;;;21.33;100.00
13209;BME280;6669;42.678;23.332;2023-08-20T02:55:03;94737.50;;;21.23;100.00
13209;BME280;6669;42.678;23.332;2023-08-20T02:57:32;94746.94;;;21.19;100.00
13209;BME280;6669;42.678;23.332;2023-08-20T03:00:01;94756.69;;;21.19;100.00
13209;BME280;6669;42.678;23.332;2023-08-20T03:02:29;94752.22;;;21.19;100.00
13209;BME280;6669;42.678;23.332;2023-08-20T03:04:57;94756.22;;;21.22;100.00
13209;BME280;6669;42.678;23.332;2023-08-20T03:07:25;94755.91;;;21.18;100.00
13209;BME280;6669;42.678;23.332;2023-08-20T03:09:53;94764.84;;;21.17;100.00
13209;BME280;6669;42.678;23.332;2023-08-20T03:12:22;94774.53;;;21.12;100.00
13209;BME280;6669;42.678;23.332;2023-08-20T03:14:50;94763.28;;;21.04;100.00
13209;BME280;6669;42.678;23.332;2023-08-20T03:17:18;94762.94;;;21.01;100.00
13209;BME280;6669;42.678;23.332;2023-08-20T03:19:54;94754.81;;;20.90;100.00
13209;BME280;6669;42.678;23.332;2023-08-20T03:22:23;94764.13;;;20.93;100.00
13209;BME280;6669;42.678;23.332;2023-08-20T03:24:51;94757.34;;;20.85;100.00
13209;BME280;6669;42.678;23.332;2023-08-20T03:27:20;94751.41;;;20.78;100.00
13209;BME280;6669;42.678;23.332;2023-08-20T03:29:49;94758.63;;;20.83;100.00
13209;BME280;6669;42.678;23.332;2023-08-20T03:32:17;94756.78;;;20.83;100.00
13209;BME280;6669;42.678;23.332;2023-08-20T03:34:45;94754.97;;;20.84;100.00
13209;BME280;6669;42.678;23.332;2023-08-20T03:37:13;94764.72;;;20.83;100.00
13209;BME280;6669;42.678;23.332;2023-08-20T03:39:41;94756.09;;;20.88;100.00
13209;BME280;6669;42.678;23.332;2023-08-20T03:42:09;94756.22;;;20.81;100.00
13209;BME280;6669;42.678;23.332;2023-08-20T03:44:37;94750.91;;;20.69;100.00
13209;BME280;6669;42.678;23.332;2023-08-20T03:47:07;94756.69;;;20.78;100.00
13209;BME280;6669;42.678;23.332;2023-08-20T03:49:35;94753.13;;;20.72;100.00
13209;BME280;6669;42.678;23.332;2023-08-20T03:52:04;94755.06;;;20.65;100.00
13209;BME280;6669;42.678;23.332;2023-08-20T03:54:33;94757.84;;;20.58;100.00
13209;BME280;6669;42.678;23.332;2023-08-20T03:57:01;94747.41;;;20.52;100.00
13209;BME280;6669;42.678;23.332;2023-08-20T03:59:29;94746.22;;;20.48;100.00
13209;BME280;6669;42.678;23.332;2023-08-20T04:01:57;94739.81;;;20.44;100.00
13209;BME280;6669;42.678;23.332;2023-08-20T04:04:27;94754.38;;;20.46;100.00
13209;BME280;6669;42.678;23.332;2023-08-20T04:06:55;94755.91;;;20.30;100.00
13209;BME280;6669;42.678;23.332;2023-08-20T04:09:22;94752.31;;;20.24;100.00
13209;BME280;6669;42.678;23.332;2023-08-20T04:11:51;94753.34;;;20.23;100.00
13209;BME280;6669;42.678;23.332;2023-08-20T04:14:19;94759.88;;;20.21;100.00
13209;BME280;6669;42.678;23.332;2023-08-20T04:16:47;94758.31;;;20.20;100.00
13209;BME280;6669;42.678;23.332;2023-08-20T04:19:15;94749.69;;;20.24;100.00
13209;BME280;6669;42.678;23.332;2023-08-20T04:21:44;94751.19;;;20.20;100.00
13209;BME280;6669;42.678;23.332;2023-08-20T04:24:12;94748.78;;;20.19;100.00
13209;BME280;6669;42.678;23.332;2023-08-20T04:26:41;94755.06;;;20.30;100.00
13209;BME280;6669;42.678;23.332;2023-08-20T04:29:10;94756.94;;;20.29;100.00
13209;BME280;6669;42.678;23.332;2023-08-20T04:31:38;94763.22;;;20.40;100.00
13209;BME280;6669;42.678;23.332;2023-08-20T04:34:06;94763.03;;;20.41;100.00
13209;BME280;6669;42.678;23.332;2023-08-20T04:36:34;94759.22;;;20.37;100.00
13209;BME280;6669;42.678;23.332;2023-08-20T04:39:03;94749.72;;;20.36;100.00
13209;BME280;6669;42.678;23.332;2023-08-20T04:41:32;94763.03;;;20.41;100.00
13209;BME280;6669;42.678;23.332;2023-08-20T04:44:00;94758.53;;;20.42;100.00
13209;BME280;6669;42.678;23.332;2023-08-20T04:46:28;94761.16;;;20.54;100.00
13209;BME280;6669;42.678;23.332;2023-08-20T04:48:56;94761.38;;;20.52;100.00
13209;BME280;6669;42.678;23.332;2023-08-20T04:51:24;94759.09;;;20.56;100.00
13209;BME280;6669;42.678;23.332;2023-08-20T04:53:52;94768.25;;;20.65;100.00
13209;BME280;6669;42.678;23.332;2023-08-20T04:56:21;94756.91;;;20.65;100.00
13209;BME280;6669;42.678;23.332;2023-08-20T04:58:49;94758.50;;;20.54;100.00
13209;BME280;6669;42.678;23.332;2023-08-20T05:01:17;94764.59;;;20.66;100.00
13209;BME280;6669;42.678;23.332;2023-08-20T05:03:45;94772.66;;;20.60;100.00
13209;BME280;6669;42.678;23.332;2023-08-20T05:06:13;94771.25;;;20.69;100.00
13209;BME280;6669;42.678;23.332;2023-08-20T05:08:42;94774.84;;;20.74;100.00
13209;BME280;6669;42.678;23.332;2023-08-20T05:11:10;94761.31;;;20.71;100.00
13209;BME280;6669;42.678;23.332;2023-08-20T05:13:40;94760.59;;;20.76;100.00
13209;BME280;6669;42.678;23.332;2023-08-20T05:16:07;94761.38;;;20.88;100.00
13209;BME280;6669;42.678;23.332;2023-08-20T05:18:35;94769.16;;;20.95;100.00
13209;BME280;6669;42.678;23.332;2023-08-20T05:21:03;94772.25;;;21.03;100.00
13209;BME280;6669;42.678;23.332;2023-08-20T05:23:31;94773.16;;;21.09;100.00
13209;BME280;6669;42.678;23.332;2023-08-20T05:25:59;94775.88;;;21.26;100.00
13209;BME280;6669;42.678;23.332;2023-08-20T05:28:27;94782.63;;;21.34;100.00
13209;BME280;6669;42.678;23.332;2023-08-20T05:30:57;94783.84;;;21.43;100.00
13209;BME280;6669;42.678;23.332;2023-08-20T05:33:25;94781.88;;;21.50;100.00
13209;BME280;6669;42.678;23.332;2023-08-20T05:35:53;94763.84;;;21.47;100.00
13209;BME280;6669;42.678;23.332;2023-08-20T05:38:21;94787.13;;;21.62;100.00
13209;BME280;6669;42.678;23.332;2023-08-20T05:40:49;94790.50;;;21.58;100.00
13209;BME280;6669;42.678;23.332;2023-08-20T05:43:17;94782.56;;;21.58;100.00
13209;BME280;6669;42.678;23.332;2023-08-20T05:45:45;94795.97;;;21.68;100.00
13209;BME280;6669;42.678;23.332;2023-08-20T05:48:15;94790.28;;;21.76;100.00
13209;BME280;6669;42.678;23.332;2023-08-20T05:50:43;94794.72;;;21.87;100.00
13209;BME280;6669;42.678;23.332;2023-08-20T05:53:11;94794.66;;;21.99;100.00
13209;BME280;6669;42.678;23.332;2023-08-20T05:55:39;94787.81;;;21.86;100.00
13209;BME280;6669;42.678;23.332;2023-08-20T05:58:07;94791.53;;;22.02;100.00
13209;BME280;6669;42.678;23.332;2023-08-20T06:00:35;94793.22;;;22.09;100.00
13209;BME280;6669;42.678;23.332;2023-08-20T06:03:04;94786.06;;;22.09;100.00
13209;BME280;6669;42.678;23.332;2023-08-20T06:05:35;94781.94;;;22.13;100.00
13209;BME280;6669;42.678;23.332;2023-08-20T06:08:04;94784.66;;;22.18;100.00
13209;BME280;6669;42.678;23.332;2023-08-20T06:10:32;94783.03;;;22.17;100.00
13209;BME280;6669;42.678;23.332;2023-08-20T06:13:00;94780.16;;;22.19;100.00
13209;BME280;6669;42.678;23.332;2023-08-20T06:15:28;94786.09;;;22.26;100.00
13209;BME280;6669;42.678;23.332;2023-08-20T06:17:56;94790.09;;;22.29;100.00
13209;BME280;6669;42.678;23.332;2023-08-20T06:20:23;94784.81;;;22.46;100.00
13209;BME280;6669;42.678;23.332;2023-08-20T06:22:53;94785.22;;;22.55;100.00
13209;BME280;6669;42.678;23.332;2023-08-20T06:25:21;94795.84;;;22.77;100.00
13209;BME280;6669;42.678;23.332;2023-08-20T06:27:49;94793.56;;;22.85;100.00
13209;BME280;6669;42.678;23.332;2023-08-20T06:30:17;94793.22;;;22.99;100.00
13209;BME280;6669;42.678;23.332;2023-08-20T06:32:45;94793.59;;;23.08;100.00
13209;BME280;6669;42.678;23.332;2023-08-20T06:35:13;94794.81;;;23.17;100.00
13209;BME280;6669;42.678;23.332;2023-08-20T06:37:41;94795.72;;;23.28;100.00
13209;BME280;6669;42.678;23.332;2023-08-20T06:40:11;94789.72;;;23.38;100.00
13209;BME280;6669;42.678;23.332;2023-08-20T06:42:40;94800.44;;;23.48;100.00
13209;BME280;6669;42.678;23.332;2023-08-20T06:45:09;94803.78;;;23.60;100.00
13209;BME280;6669;42.678;23.332;2023-08-20T06:47:37;94800.88;;;23.62;100.00
13209;BME280;6669;42.678;23.332;2023-08-20T06:50:06;94790.16;;;23.79;100.00
13209;BME280;6669;42.678;23.332;2023-08-20T06:52:34;94802.34;;;24.02;100.00
13209;BME280;6669;42.678;23.332;2023-08-20T06:55:02;94799.56;;;24.19;100.00
13209;BME280;6669;42.678;23.332;2023-08-20T06:57:32;94796.81;;;24.41;100.00
13209;BME280;6669;42.678;23.332;2023-08-20T07:00:00;94800.16;;;24.64;100.00
13209;BME280;6669;42.678;23.332;2023-08-20T07:02:30;94787.78;;;24.80;100.00
13209;BME280;6669;42.678;23.332;2023-08-20T07:04:58;94801.19;;;25.01;100.00
13209;BME280;6669;42.678;23.332;2023-08-20T07:07:26;94798.84;;;25.14;100.00
13209;BME280;6669;42.678;23.332;2023-08-20T07:09:54;94797.81;;;25.16;100.00
13209;BME280;6669;42.678;23.332;2023-08-20T07:12:22;94800.50;;;25.26;100.00
13209;BME280;6669;42.678;23.332;2023-08-20T07:14:51;94797.84;;;25.31;100.00
13209;BME280;6669;42.678;23.332;2023-08-20T07:17:19;94801.56;;;25.30;100.00
13209;BME280;6669;42.678;23.332;2023-08-20T07:19:47;94794.75;;;25.44;100.00
13209;BME280;6669;42.678;23.332;2023-08-20T07:22:15;94796.13;;;25.57;100.00
13209;BME280;6669;42.678;23.332;2023-08-20T07:24:43;94791.09;;;25.71;100.00
13209;BME280;6669;42.678;23.332;2023-08-20T07:27:11;94800.69;;;25.77;100.00
13209;BME280;6669;42.678;23.332;2023-08-20T07:29:41;94803.84;;;25.69;100.00
13209;BME280;6669;42.678;23.332;2023-08-20T07:32:10;94806.53;;;25.74;100.00
13209;BME280;6669;42.678;23.332;2023-08-20T07:34:38;94798.53;;;25.79;100.00
13209;BME280;6669;42.678;23.332;2023-08-20T07:37:06;94797.75;;;25.74;100.00
13209;BME280;6669;42.678;23.332;2023-08-20T07:39:34;94802.53;;;25.72;100.00
13209;BME280;6669;42.678;23.332;2023-08-20T07:42:03;94803.09;;;25.79;100.00
13209;BME280;6669;42.678;23.332;2023-08-20T07:44:31;94802.31;;;25.89;100.00
13209;BME280;6669;42.678;23.332;2023-08-20T07:46:59;94801.50;;;25.88;100.00
13209;BME280;6669;42.678;23.332;2023-08-20T07:49:28;94803.41;;;26.08;100.00
13209;BME280;6669;42.678;23.332;2023-08-20T07:51:56;94791.44;;;26.16;100.00
13209;BME280;6669;42.678;23.332;2023-08-20T07:54:24;94796.47;;;26.33;100.00
13209;BME280;6669;42.678;23.332;2023-08-20T07:56:53;94799.13;;;26.38;100.00
13209;BME280;6669;42.678;23.332;2023-08-20T07:59:21;94801.81;;;26.59;100.00
13209;BME280;6669;42.678;23.332;2023-08-20T08:01:50;94797.81;;;26.77;100.00
13209;BME280;6669;42.678;23.332;2023-08-20T08:04:17;94796.44;;;26.90;100.00
13209;BME280;6669;42.678;23.332;2023-08-20T08:06:47;94796.47;;;26.85;100.00
13209;BME280;6669;42.678;23.332;2023-08-20T08:09:18;94795.31;;;27.06;100.00
13209;BME280;6669;42.678;23.332;2023-08-20T08:11:48;94794.75;;;27.15;100.00
13209;BME280;6669;42.678;23.332;2023-08-20T08:14:16;94783.00;;;27.16;100.00
13209;BME280;6669;42.678;23.332;2023-08-20T08:16:45;94795.47;;;27.36;100.00
13209;BME280;6669;42.678;23.332;2023-08-20T08:19:13;94798.41;;;27.45;100.00
13209;BME280;6669;42.678;23.332;2023-08-20T08:21:41;94798.66;;;27.48;100.00
13209;BME280;6669;42.678;23.332;2023-08-20T08:24:11;94779.94;;;27.53;98.38
13209;BME280;6669;42.678;23.332;2023-08-20T08:26:40;94795.31;;;27.72;99.76
13209;BME280;6669;42.678;23.332;2023-08-20T08:29:08;94792.63;;;27.72;96.74
13209;BME280;6669;42.678;23.332;2023-08-20T08:31:36;94791.34;;;27.64;97.74
13209;BME280;6669;42.678;23.332;2023-08-20T08:34:04;94796.03;;;27.88;99.97
13209;BME280;6669;42.678;23.332;2023-08-20T08:36:32;94801.28;;;27.98;96.27
13209;BME280;6669;42.678;23.332;2023-08-20T08:39:00;94791.44;;;27.94;91.23
13209;BME280;6669;42.678;23.332;2023-08-20T08:41:31;94797.31;;;27.96;87.88
13209;BME280;6669;42.678;23.332;2023-08-20T08:44:03;94796.97;;;28.08;87.98
13209;BME280;6669;42.678;23.332;2023-08-20T08:46:31;94794.25;;;28.18;83.84
13209;BME280;6669;42.678;23.332;2023-08-20T08:48:59;94792.56;;;28.27;79.72
13209;BME280;6669;42.678;23.332;2023-08-20T08:51:28;94796.50;;;28.35;77.95
13209;BME280;6669;42.678;23.332;2023-08-20T08:53:58;94788.13;;;28.47;81.18
13209;BME280;6669;42.678;23.332;2023-08-20T08:56:26;94795.69;;;28.40;80.86
13209;BME280;6669;42.678;23.332;2023-08-20T08:58:56;94781.16;;;28.46;76.24
13209;BME280;6669;42.678;23.332;2023-08-20T09:01:24;94795.25;;;28.57;72.49
13209;BME280;6669;42.678;23.332;2023-08-20T09:03:52;94790.88;;;28.66;72.65
13209;BME280;6669;42.678;23.332;2023-08-20T09:06:20;94794.25;;;28.82;74.40
13209;BME280;6669;42.678;23.332;2023-08-20T09:08:48;94782.13;;;28.90;74.17
13209;BME280;6669;42.678;23.332;2023-08-20T09:11:16;94786.22;;;28.82;69.80
13209;BME280;6669;42.678;23.332;2023-08-20T09:13:44;94788.59;;;28.83;70.78
13209;BME280;6669;42.678;23.332;2023-08-20T09:16:13;94793.56;;;28.95;71.24
13209;BME280;6669;42.678;23.332;2023-08-20T09:18:41;94774.56;;;28.97;69.11
13209;BME280;6669;42.678;23.332;2023-08-20T09:21:12;94787.81;;;29.07;71.90
13209;BME280;6669;42.678;23.332;2023-08-20T09:23:45;94788.50;;;29.18;72.86
13209;BME280;6669;42.678;23.332;2023-08-20T09:26:14;94781.34;;;29.38;72.66
13209;BME280;6669;42.678;23.332;2023-08-20T09:28:43;94772.78;;;29.35;68.81
13209;BME280;6669;42.678;23.332;2023-08-20T09:31:14;94788.84;;;29.35;64.22
13209;BME280;6669;42.678;23.332;2023-08-20T09:33:49;94786.41;;;29.39;66.34
13209;BME280;6669;42.678;23.332;2023-08-20T09:36:17;94790.00;;;29.29;63.49
13209;BME280;6669;42.678;23.332;2023-08-20T09:38:45;94788.19;;;29.44;66.09
13209;BME280;6669;42.678;23.332;2023-08-20T09:41:17;94786.34;;;29.44;65.41
13209;BME280;6669;42.678;23.332;2023-08-20T09:43:46;94779.59;;;29.47;63.34
13209;BME280;6669;42.678;23.332;2023-08-20T09:46:18;94781.81;;;29.40;64.78
13209;BME280;6669;42.678;23.332;2023-08-20T09:48:48;94776.75;;;29.38;66.93
13209;BME280;6669;42.678;23.332;2023-08-20T09:51:23;94777.63;;;29.52;66.03
13209;BME280;6669;42.678;23.332;2023-08-20T09:53:56;94774.47;;;29.50;65.86
13209;BME280;6669;42.678;23.332;2023-08-20T09:56:29;94767.28;;;29.46;63.79
13209;BME280;6669;42.678;23.332;2023-08-20T09:58:58;94764.47;;;29.37;62.21
13209;BME280;6669;42.678;23.332;2023-08-20T10:01:30;94760.34;;;29.45;63.64
13209;BME280;6669;42.678;23.332;2023-08-20T10:03:59;94769.19;;;29.64;63.12
13209;BME280;6669;42.678;23.332;2023-08-20T10:06:28;94765.13;;;29.67;61.58
13209;BME280;6669;42.678;23.332;2023-08-20T10:08:58;94769.28;;;29.78;61.79
13209;BME280;6669;42.678;23.332;2023-08-20T10:11:27;94763.19;;;29.92;60.11
13209;BME280;6669;42.678;23.332;2023-08-20T10:13:55;94771.44;;;29.95;60.85
13209;BME280;6669;42.678;23.332;2023-08-20T10:16:23;94772.38;;;30.05;60.22
13209;BME280;6669;42.678;23.332;2023-08-20T10:18:53;94772.81;;;30.12;60.16
13209;BME280;6669;42.678;23.332;2023-08-20T10:21:23;94769.50;;;30.34;62.62
13209;BME280;6669;42.678;23.332;2023-08-20T10:23:51;94768.69;;;30.53;59.26
13209;BME280;6669;42.678;23.332;2023-08-20T10:26:20;94765.81;;;30.63;58.96
13209;BME280;6669;42.678;23.332;2023-08-20T10:28:48;94767.22;;;30.88;60.42
13209;BME280;6669;42.678;23.332;2023-08-20T10:31:17;94768.22;;;30.78;59.01
13209;BME280;6669;42.678;23.332;2023-08-20T10:33:55;94763.94;;;30.91;58.39
13209;BME280;6669;42.678;23.332;2023-08-20T10:36:24;94765.13;;;30.99;57.92
13209;BME280;6669;42.678;23.332;2023-08-20T10:38:54;94763.59;;;31.12;57.14
13209;BME280;6669;42.678;23.332;2023-08-20T10:41:27;94757.88;;;31.55;55.91
13209;BME280;6669;42.678;23.332;2023-08-20T10:43:57;94756.97;;;31.97;55.24
13209;BME280;6669;42.678;23.332;2023-08-20T10:46:27;94756.59;;;32.35;53.56
13209;BME280;6669;42.678;23.332;2023-08-20T10:48:59;94754.34;;;32.82;53.74
13209;BME280;6669;42.678;23.332;2023-08-20T10:51:31;94752.00;;;33.30;53.35
13209;BME280;6669;42.678;23.332;2023-08-20T10:54:05;94754.28;;;33.89;50.22
13209;BME280;6669;42.678;23.332;2023-08-20T10:56:44;94748.38;;;34.22;50.78
13209;BME280;6669;42.678;23.332;2023-08-20T10:59:17;94741.69;;;34.46;50.50
13209;BME280;6669;42.678;23.332;2023-08-20T11:01:46;94738.91;;;34.72;49.64
13209;BME280;6669;42.678;23.332;2023-08-20T11:04:18;94744.94;;;34.86;48.25
13209;BME280;6669;42.678;23.332;2023-08-20T11:06:49;94744.84;;;35.04;48.44
13209;BME280;6669;42.678;23.332;2023-08-20T11:09:18;94740.72;;;35.37;48.56
13209;BME280;6669;42.678;23.332;2023-08-20T11:11:47;94745.59;;;35.13;48.03
13209;BME280;6669;42.678;23.332;2023-08-20T11:14:15;94738.63;;;35.63;45.81
13209;BME280;6669;42.678;23.332;2023-08-20T11:16:43;94737.78;;;35.72;45.58
13209;BME280;6669;42.678;23.332;2023-08-20T11:19:13;94732.03;;;35.73;46.47
13209;BME280;6669;42.678;23.332;2023-08-20T11:21:42;94725.50;;;35.74;46.98
13209;BME280;6669;42.678;23.332;2023-08-20T11:24:11;94727.19;;;35.37;46.50
13209;BME280;6669;42.678;23.332;2023-08-20T11:26:40;94724.91;;;35.47;46.61
13209;BME280;6669;42.678;23.332;2023-08-20T11:29:09;94724.13;;;35.68;46.27
13209;BME280;6669;42.678;23.332;2023-08-20T11:31:38;94720.50;;;35.64;46.12
13209;BME280;6669;42.678;23.332;2023-08-20T11:34:06;94718.84;;;35.72;46.19
13209;BME280;6669;42.678;23.332;2023-08-20T11:36:34;94715.22;;;35.89;45.61
13209;BME280;6669;42.678;23.332;2023-08-20T11:39:04;94730.53;;;36.39;45.70
13209;BME280;6669;42.678;23.332;2023-08-20T11:41:35;94725.34;;;36.46;45.22
13209;BME280;6669;42.678;23.332;2023-08-20T11:44:04;94727.47;;;36.99;44.63
13209;BME280;6669;42.678;23.332;2023-08-20T11:46:32;94724.88;;;37.03;45.30
13209;BME280;6669;42.678;23.332;2023-08-20T11:49:01;94722.59;;;36.92;44.27
13209;BME280;6669;42.678;23.332;2023-08-20T11:51:35;94721.34;;;36.90;44.01
13209;BME280;6669;42.678;23.332;2023-08-20T11:54:07;94714.47;;;37.05;44.96
13209;BME280;6669;42.678;23.332;2023-08-20T11:56:35;94719.78;;;37.13;43.86
13209;BME280;6669;42.678;23.332;2023-08-20T11:59:05;94716.38;;;37.41;44.35
13209;BME280;6669;42.678;23.332;2023-08-20T12:01:38;94720.09;;;37.49;44.09
13209;BME280;6669;42.678;23.332;2023-08-20T12:04:07;94720.22;;;37.40;44.54
13209;BME280;6669;42.678;23.332;2023-08-20T12:06:37;94702.94;;;37.33;43.68
13209;BME280;6669;42.678;23.332;2023-08-20T12:09:20;94704.09;;;37.07;44.16
13209;BME280;6669;42.678;23.332;2023-08-20T12:11:49;94709.50;;;36.94;43.82
13209;BME280;6669;42.678;23.332;2023-08-20T12:14:18;94694.81;;;37.20;45.08
13209;BME280;6669;42.678;23.332;2023-08-20T12:16:46;94695.59;;;37.21;44.36
13209;BME280;6669;42.678;23.332;2023-08-20T12:19:14;94700.97;;;37.58;44.13
13209;BME280;6669;42.678;23.332;2023-08-20T12:21:43;94696.78;;;37.60;44.15
13209;BME280;6669;42.678;23.332;2023-08-20T12:24:11;94696.78;;;38.01;44.61
13209;BME280;6669;42.678;23.332;2023-08-20T12:26:40;94684.34;;;37.59;45.19
13209;BME280;6669;42.678;23.332;2023-08-20T12:29:08;94682.03;;;37.74;44.65
13209;BME280;6669;42.678;23.332;2023-08-20T12:31:36;94673.13;;;37.73;44.59
13209;BME280;6669;42.678;23.332;2023-08-20T12:34:05;94679.41;;;37.49;44.27
13209;BME280;6669;42.678;23.332;2023-08-20T12:36:33;94687.13;;;37.75;44.18
13209;BME280;6669;42.678;23.332;2023-08-20T12:39:01;94679.22;;;36.55;44.61
13209;BME280;6669;42.678;23.332;2023-08-20T12:41:30;94685.34;;;37.02;45.33
13209;BME280;6669;42.678;23.332;2023-08-20T12:43:59;94678.66;;;37.11;45.27
13209;BME280;6669;42.678;23.332;2023-08-20T12:46:27;94686.78;;;37.36;45.06
13209;BME280;6669;42.678;23.332;2023-08-20T12:48:55;94682.50;;;37.35;45.26
13209;BME280;6669;42.678;23.332;2023-08-20T12:51:23;94681.59;;;37.31;45.35
13209;BME280;6669;42.678;23.332;2023-08-20T12:53:51;94679.72;;;36.94;45.19
13209;BME280;6669;42.678;23.332;2023-08-20T12:56:19;94671.34;;;37.24;45.62
13209;BME280;6669;42.678;23.332;2023-08-20T12:58:47;94677.84;;;37.36;44.50
13209;BME280;6669;42.678;23.332;2023-08-20T13:01:16;94669.88;;;37.68;44.82